Time;durP1;ratioP1;P1;durP2;ratioP2;P2;SDS_P1;SDS_P2;PMS_P1;PMS_P2;Temp;Humidity;BMP_temperature;BMP_pressure;BME280_temperature;BME280_humidity;BME280_pressure;Samples;Min_cycle;Max_cycle;Signal;HPM_P1;HPM_P2
2022/12/01 00:00:57;;;;;;;88.88;38.95;;;;;;;;;;5110940;28;20063;-57
2022/12/01 00:03:24;;;;;;;93.15;39.35;;;5.50;99.90;;;;;;5111367;28;20082;-55
2022/12/01 00:06:19;;;;;;;111.97;43.85;;;;;;;;;;5110931;28;20500;-56
2022/12/01 00:10:24;;;;;;;;;;;;;;;;;;5094686;28;20047;-57
2022/12/01 00:11:31;;;;;;;;;;;;;;;;;;5110692;28;19916;-57
2022/12/01 00:13:57;;;;;;;103.00;40.92;;;6.00;99.90;;;;;;5104589;28;20418;-56
2022/12/01 00:16:23;;;;;;;92.95;39.75;;;6.00;99.90;;;;;;5110905;28;20039;-57
2022/12/01 00:18:50;;;;;;;92.65;41.08;;;5.80;99.90;;;;;;5110191;28;20036;-57
2022/12/01 00:21:17;;;;;;;101.15;43.05;;;;;;;;;;5110930;28;20042;-57
2022/12/01 00:23:46;;;;;;;85.97;39.95;;;;;;;;;;5110530;28;20122;-57
2022/12/01 00:26:12;;;;;;;117.68;44.55;;;6.00;99.90;;;;;;5110437;28;20039;-57
2022/12/01 00:28:38;;;;;;;109.63;44.92;;;6.00;99.90;;;;;;5110184;28;20081;-57
2022/12/01 00:31:07;;;;;;;99.90;43.28;;;;;;;;;;5110988;28;20422;-56
2022/12/01 00:33:33;;;;;;;91.32;41.00;;;;;;;;;;5110724;27;20588;-56
2022/12/01 00:36:00;;;;;;;83.57;39.67;;;;;;;;;;5110098;28;20059;-57
2022/12/01 00:38:26;;;;;;;100.72;42.30;;;;;;;;;;5109643;28;20112;-56
2022/12/01 00:40:52;;;;;;;129.00;46.95;;;;;;;;;;5109635;28;20027;-57
2022/12/01 00:43:18;;;;;;;142.80;45.58;;;;;;;;;;5109520;28;20106;-57
2022/12/01 00:45:44;;;;;;;92.85;40.25;;;;;;;;;;5110325;28;20131;-56
2022/12/01 00:48:10;;;;;;;112.13;42.22;;;6.10;99.90;;;;;;5107539;28;20393;-56
2022/12/01 00:50:35;;;;;;;103.82;43.83;;;6.00;99.90;;;;;;5110363;28;20035;-57
2022/12/01 00:53:01;;;;;;;127.20;49.15;;;;;;;;;;5114768;28;20039;-57
2022/12/01 00:55:27;;;;;;;101.85;43.35;;;;;;;;;;5109566;28;20044;-56
2022/12/01 00:57:53;;;;;;;95.28;40.78;;;;;;;;;;5109616;28;20465;-57
2022/12/01 01:00:19;;;;;;;133.55;46.53;;;;;;;;;;5108890;28;20040;-57
2022/12/01 01:02:45;;;;;;;96.43;40.42;;;;;;;;;;5109543;28;20633;-57
2022/12/01 01:05:12;;;;;;;113.40;45.92;;;;;;;;;;5123838;28;20050;-57
2022/12/01 01:07:38;;;;;;;90.78;38.97;;;;;;;;;;5120502;28;20040;-57
2022/12/01 01:10:04;;;;;;;161.73;51.30;;;;;;;;;;5109996;28;20396;-57
2022/12/01 01:12:30;;;;;;;124.78;47.83;;;;;;;;;;5109017;28;20036;-57
2022/12/01 01:14:56;;;;;;;106.95;41.20;;;;;;;;;;5111100;28;20091;-57
2022/12/01 01:17:22;;;;;;;127.97;44.72;;;6.00;99.90;;;;;;5109384;28;20039;-57
2022/12/01 01:19:47;;;;;;;106.03;43.45;;;6.00;99.90;;;;;;5111345;28;20035;-56
2022/12/01 01:22:13;;;;;;;105.40;41.70;;;;;;;;;;5111691;28;20036;-57
2022/12/01 01:24:42;;;;;;;125.45;45.42;;;;;;;;;;5104763;28;20034;-57
2022/12/01 01:27:08;;;;;;;111.35;43.40;;;5.90;99.90;;;;;;5100797;28;20557;-56
2022/12/01 01:29:34;;;;;;;115.78;46.13;;;;;;;;;;5107856;28;20040;-57
2022/12/01 01:32:00;;;;;;;93.03;41.35;;;;;;;;;;5110161;28;20046;-57
2022/12/01 01:34:25;;;;;;;95.32;43.42;;;5.80;99.90;;;;;;5108072;28;20043;-57
2022/12/01 01:36:51;;;;;;;99.85;42.05;;;;;;;;;;5110108;28;20031;-54
2022/12/01 01:39:17;;;;;;;106.03;40.70;;;;;;;;;;5109689;28;20043;-56
2022/12/01 01:41:43;;;;;;;93.63;39.60;;;5.90;99.90;;;;;;5104944;28;20036;-57
2022/12/01 01:44:28;;;;;;;96.38;43.97;;;;;;;;;;5109951;28;20084;-55
2022/12/01 01:46:54;;;;;;;103.43;42.88;;;5.80;99.90;;;;;;5101589;28;20392;-57
2022/12/01 01:49:20;;;;;;;98.40;43.53;;;;;;;;;;5109502;28;20031;-57
2022/12/01 01:51:49;;;;;;;105.35;44.22;;;5.60;99.90;;;;;;5110015;28;20036;-57
2022/12/01 01:54:19;;;;;;;113.85;44.03;;;;;;;;;;5110792;28;20062;-54
2022/12/01 01:56:45;;;;;;;128.63;47.40;;;;;;;;;;5109482;28;20050;-56
2022/12/01 01:59:13;;;;;;;111.70;43.85;;;;;;;;;;5106748;28;20050;-54
2022/12/01 02:01:38;;;;;;;91.85;39.80;;;5.90;99.90;;;;;;5113402;28;20031;-54
2022/12/01 02:04:05;;;;;;;126.25;46.28;;;;;;;;;;5113695;28;20032;-58
2022/12/01 02:06:31;;;;;;;110.05;44.85;;;;;;;;;;5112740;28;20350;-55
2022/12/01 02:08:57;;;;;;;115.80;44.00;;;;;;;;;;5113268;28;20040;-56
2022/12/01 02:11:23;;;;;;;110.20;42.33;;;;;;;;;;5112627;28;20035;-57
2022/12/01 02:14:04;;;;;;;121.63;45.17;;;;;;;;;;5112101;28;20040;-56
2022/12/01 02:16:53;;;;;;;103.18;44.53;;;5.30;99.90;;;;;;5112730;28;20036;-57
2022/12/01 02:19:28;;;;;;;102.47;44.22;;;;;;;;;;5108159;28;20396;-56
2022/12/01 02:22:03;;;;;;;97.82;41.15;;;;;;;;;;5104668;28;20109;-55
2022/12/01 02:24:50;;;;;;;120.53;44.53;;;;;;;;;;5110914;27;20233;-55
2022/12/01 02:27:16;;;;;;;98.07;41.85;;;;;;;;;;5104580;27;20043;-55
2022/12/01 02:29:48;;;;;;;108.90;46.35;;;;;;;;;;5102732;28;20036;-55
2022/12/01 02:32:22;;;;;;;125.05;44.97;;;6.10;99.90;;;;;;5105099;28;20554;-55
2022/12/01 02:34:57;;;;;;;139.05;48.10;;;5.50;99.90;;;;;;5112202;28;20040;-55
2022/12/01 02:37:42;;;;;;;110.72;43.53;;;6.10;99.90;;;;;;5112173;28;20066;-54
2022/12/01 02:40:34;;;;;;;108.38;43.47;;;;;;;;;;5109688;27;20386;-54
2022/12/01 02:43:20;;;;;;;96.93;39.85;;;5.70;99.90;;;;;;5103823;28;20040;-56
2022/12/01 02:45:53;;;;;;;114.00;43.92;;;;;;;;;;5120859;27;20043;-57
2022/12/01 02:48:25;;;;;;;147.10;51.17;;;;;;;;;;5127426;27;20080;-56
2022/12/01 02:50:53;;;;;;;125.72;47.45;;;5.80;99.90;;;;;;5123318;27;20543;-56
2022/12/01 02:53:20;;;;;;;125.32;47.28;;;;;;;;;;5111509;28;20290;-57
2022/12/01 02:55:46;;;;;;;113.13;43.30;;;;;;;;;;5115058;27;20035;-57
2022/12/01 02:58:13;;;;;;;125.18;47.13;;;;;;;;;;5111888;28;20043;-57
2022/12/01 03:00:41;;;;;;;122.30;46.22;;;5.90;99.90;;;;;;5111068;28;20036;-57
2022/12/01 03:03:33;;;;;;;175.23;55.03;;;;;;;;;;5112804;28;20032;-58
2022/12/01 03:06:11;;;;;;;136.88;48.15;;;;;;;;;;5103432;28;20048;-56
2022/12/01 03:08:59;;;;;;;112.72;45.40;;;;;;;;;;5109463;28;20050;-57
2022/12/01 03:11:31;;;;;;;114.90;44.58;;;;;;;;;;5111689;27;20335;-58
2022/12/01 03:14:30;;;;;;;116.18;44.80;;;5.50;99.90;;;;;;5093495;28;20044;-58
2022/12/01 03:16:57;;;;;;;112.03;43.28;;;;;;;;;;5093613;27;20044;-58
2022/12/01 03:19:44;;;;;;;110.70;44.20;;;5.60;99.90;;;;;;5106431;28;20082;-58
2022/12/01 03:22:14;;;;;;;123.53;44.63;;;;;;;;;;5097831;28;20043;-58
2022/12/01 03:24:43;;;;;;;120.97;44.97;;;6.30;99.90;;;;;;5108187;28;20039;-58
2022/12/01 03:27:10;;;;;;;116.05;46.00;;;;;;;;;;5100260;28;20032;-58
2022/12/01 03:29:40;;;;;;;121.90;47.33;;;5.90;99.90;;;;;;5106414;28;20047;-58
2022/12/01 03:32:12;;;;;;;104.90;42.22;;;;;;;;;;5108947;27;20070;-58
2022/12/01 03:34:48;;;;;;;108.68;44.42;;;;;;;;;;5120001;27;20489;-58
2022/12/01 03:37:17;;;;;;;114.72;46.63;;;;;;;;;;5125186;27;20039;-57
2022/12/01 03:39:45;;;;;;;121.32;44.90;;;;;;;;;;5111500;28;20042;-58
2022/12/01 03:42:23;;;;;;;119.22;45.38;;;;;;;;;;5110372;28;20397;-58
2022/12/01 03:44:52;;;;;;;116.70;46.80;;;;;;;;;;5109714;28;20177;-57
2022/12/01 03:47:27;;;;;;;129.45;48.28;;;;;;;;;;5110794;28;20043;-58
2022/12/01 03:49:53;;;;;;;125.25;47.45;;;;;;;;;;5101951;28;20044;-58
2022/12/01 03:52:28;;;;;;;120.32;47.45;;;;;;;;;;5116595;27;20477;-57
2022/12/01 03:54:56;;;;;;;116.50;45.88;;;5.70;99.90;;;;;;5103340;28;20089;-57
2022/12/01 03:57:31;;;;;;;110.03;45.50;;;;;;;;;;5110760;28;20035;-57
2022/12/01 03:59:57;;;;;;;109.30;44.08;;;;;;;;;;5107823;27;20030;-57
2022/12/01 04:02:26;;;;;;;123.55;46.53;;;5.90;99.90;;;;;;5119442;27;20036;-57
2022/12/01 04:04:52;;;;;;;113.07;46.03;;;;;;;;;;5118607;27;20040;-57
2022/12/01 04:07:19;;;;;;;111.68;43.63;;;;;;;;;;5109704;28;20098;-57
2022/12/01 04:09:45;;;;;;;121.35;47.50;;;;;;;;;;5111619;28;20313;-57
2022/12/01 04:14:57;;;;;;;129.00;47.78;;;;;;;;;;5108887;28;20040;-57
2022/12/01 04:17:24;;;;;;;140.40;47.55;;;;;;;;;;5110423;28;20382;-58
2022/12/01 04:19:50;;;;;;;131.85;47.75;;;;;;;;;;5120539;27;20031;-58
2022/12/01 04:22:16;;;;;;;119.43;44.00;;;;;;;;;;5116175;27;20476;-55
2022/12/01 04:24:42;;;;;;;109.50;44.38;;;;;;;;;;5117370;27;20096;-58
2022/12/01 04:27:08;;;;;;;111.07;45.92;;;;;;;;;;5103451;28;20036;-57
2022/12/01 04:29:34;;;;;;;135.50;49.08;;;5.80;99.90;;;;;;5110994;28;20050;-58
2022/12/01 04:32:00;;;;;;;120.65;44.80;;;;;;;;;;5110659;28;20039;-57
2022/12/01 04:34:25;;;;;;;110.68;45.55;;;5.90;99.90;;;;;;5116103;27;20493;-57
2022/12/01 04:36:51;;;;;;;119.90;44.38;;;;;;;;;;5110579;28;20031;-57
2022/12/01 04:39:17;;;;;;;109.50;44.95;;;;;;;;;;5110122;28;20027;-57
2022/12/01 04:41:43;;;;;;;108.47;44.00;;;;;;;;;;5110592;28;20046;-57
2022/12/01 04:44:10;;;;;;;115.47;44.95;;;5.90;99.90;;;;;;5109266;28;20043;-57
2022/12/01 04:46:36;;;;;;;122.82;47.42;;;5.60;99.90;;;;;;5110571;28;20115;-56
2022/12/01 04:49:02;;;;;;;144.80;47.40;;;5.70;99.90;;;;;;5109538;28;20028;-56
2022/12/01 04:51:28;;;;;;;123.57;45.22;;;5.90;99.90;;;;;;5109208;28;20077;-57
2022/12/01 04:53:54;;;;;;;105.72;44.45;;;;;;;;;;5109478;28;20047;-56
2022/12/01 04:56:21;;;;;;;104.90;43.88;;;;;;;;;;5110386;28;20031;-56
2022/12/01 04:58:47;;;;;;;141.57;49.33;;;6.00;99.90;;;;;;5109969;28;20035;-55
2022/12/01 05:01:14;;;;;;;105.10;44.28;;;;;;;;;;5109757;28;20031;-54
2022/12/01 05:03:41;;;;;;;108.18;47.40;;;;;;;;;;5109996;28;20044;-56
2022/12/01 05:06:10;;;;;;;122.45;45.40;;;5.90;99.90;;;;;;5105770;28;20035;-57
2022/12/01 05:08:36;;;;;;;115.18;46.58;;;5.80;99.90;;;;;;5094033;28;20119;-57
2022/12/01 05:11:02;;;;;;;123.15;45.75;;;;;;;;;;5100546;28;20110;-57
2022/12/01 05:13:28;;;;;;;102.75;43.80;;;;;;;;;;5096746;28;20044;-56
2022/12/01 05:15:54;;;;;;;110.78;46.15;;;;;;;;;;5092692;28;20420;-53
2022/12/01 05:18:20;;;;;;;114.38;43.47;;;;;;;;;;5099021;28;20051;-57
2022/12/01 05:20:57;;;;;;;110.70;43.90;;;5.80;99.90;;;;;;5098080;28;20497;-57
2022/12/01 05:23:24;;;;;;;137.10;49.97;;;;;;;;;;5112489;27;20114;-56
2022/12/01 05:25:50;;;;;;;122.18;46.63;;;;;;;;;;5097790;28;20036;-57
2022/12/01 05:28:16;;;;;;;138.85;51.22;;;;;;;;;;5102080;28;20040;-57
2022/12/01 05:30:42;;;;;;;112.68;46.25;;;5.80;99.90;;;;;;5094719;28;20070;-55
2022/12/01 05:33:08;;;;;;;134.63;48.65;;;5.70;99.90;;;;;;5100549;28;20495;-57
2022/12/01 05:35:33;;;;;;;120.85;45.97;;;5.70;99.90;;;;;;5112572;28;20090;-57
2022/12/01 05:37:59;;;;;;;137.52;47.50;;;;;;;;;;5111389;28;20028;-57
2022/12/01 05:40:25;;;;;;;130.18;49.28;;;;;;;;;;5110249;28;20504;-54
2022/12/01 05:42:51;;;;;;;146.93;50.60;;;;;;;;;;5108628;27;20047;-57
2022/12/01 05:45:18;;;;;;;153.10;54.45;;;;;;;;;;5113663;27;20461;-56
2022/12/01 05:47:44;;;;;;;109.43;44.22;;;;;;;;;;5099307;28;20089;-57
2022/12/01 05:50:10;;;;;;;115.53;44.05;;;;;;;;;;5094257;28;20109;-57
2022/12/01 05:52:36;;;;;;;114.47;44.85;;;;;;;;;;5089501;28;20040;-57
2022/12/01 05:55:03;;;;;;;179.52;54.83;;;;;;;;;;5088748;28;20032;-57
2022/12/01 05:57:29;;;;;;;101.50;43.03;;;;;;;;;;5090785;28;20771;-56
2022/12/01 05:59:55;;;;;;;102.35;44.03;;;5.80;99.90;;;;;;5091542;27;20284;-57
2022/12/01 06:02:21;;;;;;;109.10;45.05;;;;;;;;;;5099043;28;20119;-56
2022/12/01 06:04:47;;;;;;;104.30;43.67;;;;;;;;;;5107155;28;20084;-56
2022/12/01 06:07:13;;;;;;;104.43;43.95;;;;;;;;;;5099800;28;20044;-56
2022/12/01 06:09:50;;;;;;;114.32;45.92;;;5.90;99.90;;;;;;5106376;27;20043;-59
2022/12/01 06:12:16;;;;;;;112.10;43.78;;;;;;;;;;5109922;27;20472;-56
2022/12/01 06:14:42;;;;;;;115.18;45.13;;;;;;;;;;5102534;28;20032;-56
2022/12/01 06:17:08;;;;;;;100.25;42.55;;;;;;;;;;5099971;28;20512;-54
2022/12/01 06:19:36;;;;;;;106.32;44.25;;;6.40;99.90;;;;;;5101755;28;20044;-54
2022/12/01 06:22:02;;;;;;;102.95;41.88;;;;;;;;;;5101671;28;20035;-54
2022/12/01 06:24:28;;;;;;;110.13;43.38;;;;;;;;;;5105234;27;20044;-56
2022/12/01 06:26:54;;;;;;;109.20;41.70;;;5.80;99.90;;;;;;5102604;28;20147;-54
2022/12/01 06:29:20;;;;;;;99.30;41.92;;;;;;;;;;5109304;27;20513;-56
2022/12/01 06:31:46;;;;;;;98.30;42.00;;;5.90;99.90;;;;;;5103037;28;20032;-55
2022/12/01 06:34:12;;;;;;;95.20;40.28;;;;;;;;;;5107417;28;20027;-57
2022/12/01 06:36:38;;;;;;;85.25;37.78;;;;;;;;;;5113044;28;20055;-57
2022/12/01 06:39:08;;;;;;;78.85;35.67;;;;;;;;;;5111067;28;20066;-57
2022/12/01 06:41:35;;;;;;;84.28;37.90;;;;;;;;;;5111359;27;20071;-57
2022/12/01 06:44:01;;;;;;;96.70;39.20;;;;;;;;;;5094802;28;20509;-57
2022/12/01 06:46:26;;;;;;;77.53;33.95;;;5.60;99.90;;;;;;5092657;28;20115;-57
2022/12/01 06:48:53;;;;;;;87.25;36.85;;;;;;;;;;5102718;27;20044;-57
2022/12/01 06:51:19;;;;;;;78.22;35.13;;;;;;;;;;5095834;27;20032;-57
2022/12/01 06:53:45;;;;;;;76.78;34.35;;;;;;;;;;5103352;27;20040;-57
2022/12/01 06:56:11;;;;;;;87.47;36.20;;;;;;;;;;5100556;27;20127;-57
2022/12/01 06:58:36;;;;;;;73.80;32.50;;;4.90;99.90;;;;;;5096417;27;20036;-56
2022/12/01 07:01:09;;;;;;;79.57;32.45;;;;;;;;;;5079491;28;20039;-57
2022/12/01 07:03:35;;;;;;;87.93;35.10;;;;;;;;;;5095803;28;20040;-56
2022/12/01 07:06:02;;;;;;;81.80;33.40;;;;;;;;;;5099245;28;20043;-58
2022/12/01 07:08:29;;;;;;;71.88;32.97;;;;;;;;;;5096025;28;20081;-57
2022/12/01 07:11:04;;;;;;;70.20;31.40;;;4.60;99.90;;;;;;5105755;27;20195;-57
2022/12/01 07:13:30;;;;;;;79.05;33.00;;;;;;;;;;5100766;28;20047;-57
2022/12/01 07:15:57;;;;;;;80.38;32.63;;;;;;;;;;5101112;28;20416;-57
2022/12/01 07:18:22;;;;;;;68.25;29.15;;;4.30;99.90;;;;;;5105460;27;20059;-57
2022/12/01 07:20:48;;;;;;;76.22;30.38;;;;;;;;;;5095897;27;20489;-57
2022/12/01 07:23:14;;;;;;;81.03;30.90;;;4.30;99.90;;;;;;5106658;27;20038;-56
2022/12/01 07:25:40;;;;;;;91.05;33.20;;;4.20;99.90;;;;;;5101559;27;20075;-57
2022/12/01 07:28:06;;;;;;;88.43;35.33;;;;;;;;;;5110562;27;20040;-57
2022/12/01 07:30:32;;;;;;;77.03;33.10;;;;;;;;;;5103988;27;20040;-57
2022/12/01 07:32:58;;;;;;;102.97;37.55;;;3.80;99.90;;;;;;5097030;28;20031;-57
2022/12/01 07:35:24;;;;;;;133.52;41.80;;;;;;;;;;5111714;28;20058;-57
2022/12/01 07:37:56;;;;;;;112.60;41.20;;;;;;;;;;5111228;27;20481;-57
2022/12/01 07:40:22;;;;;;;108.57;36.92;;;;;;;;;;5109328;28;20476;-57
2022/12/01 07:42:48;;;;;;;106.85;40.50;;;;;;;;;;5102171;27;20047;-56
2022/12/01 07:45:14;;;;;;;113.03;39.75;;;;;;;;;;5111714;27;20043;-57
2022/12/01 07:47:40;;;;;;;116.97;39.95;;;;;;;;;;5100716;28;20512;-56
2022/12/01 07:50:07;;;;;;;113.45;42.97;;;;;;;;;;5101091;28;20126;-56
2022/12/01 07:52:33;;;;;;;141.77;45.55;;;;;;;;;;5104305;28;20115;-57
2022/12/01 07:54:58;;;;;;;114.13;41.08;;;4.70;99.90;;;;;;5101425;28;20035;-57
2022/12/01 07:57:24;;;;;;;140.43;46.03;;;4.70;99.90;;;;;;5093497;28;20031;-57
2022/12/01 07:59:51;;;;;;;109.72;39.10;;;;;;;;;;5097548;28;20115;-55
2022/12/01 08:02:20;;;;;;;121.70;40.58;;;;;;;;;;5103734;28;20043;-55
2022/12/01 08:04:46;;;;;;;102.35;39.20;;;;;;;;;;5098558;28;20127;-56
2022/12/01 08:07:12;;;;;;;94.90;36.70;;;;;;;;;;5103620;28;20506;-57
2022/12/01 08:09:38;;;;;;;146.13;42.30;;;;;;;;;;5103387;28;20039;-56
2022/12/01 08:12:05;;;;;;;95.28;36.90;;;;;;;;;;5103691;28;20116;-57
2022/12/01 08:14:30;;;;;;;89.72;35.72;;;;;;;;;;5100429;28;20046;-57
2022/12/01 08:16:56;;;;;;;88.03;34.78;;;;;;;;;;5098987;28;20035;-58
2022/12/01 08:19:24;;;;;;;84.82;34.05;;;4.60;99.90;;;;;;5096604;28;20050;-57
2022/12/01 08:21:50;;;;;;;77.60;32.80;;;;;;;;;;5096776;28;20032;-55
2022/12/01 08:24:16;;;;;;;75.55;32.05;;;4.50;99.90;;;;;;5104690;28;20040;-56
2022/12/01 08:26:42;;;;;;;70.45;30.58;;;;;;;;;;5103872;28;20390;-57
2022/12/01 08:29:08;;;;;;;89.65;34.85;;;;;;;;;;5100069;27;20058;-56
2022/12/01 08:31:36;;;;;;;67.57;30.17;;;;;;;;;;5097049;28;20505;-57
2022/12/01 08:34:05;;;;;;;78.82;32.38;;;;;;;;;;5104877;28;20047;-57
2022/12/01 08:36:30;;;;;;;74.22;31.05;;;4.20;99.90;;;;;;5106834;28;20044;-57
2022/12/01 08:38:57;;;;;;;62.80;26.63;;;;;;;;;;5102505;28;20401;-57
2022/12/01 08:41:27;;;;;;;64.57;27.02;;;;;;;;;;5105878;28;20036;-57
2022/12/01 08:43:53;;;;;;;55.88;26.65;;;;;;;;;;5089907;22;20529;-50
2022/12/01 08:46:19;;;;;;;65.30;27.73;;;4.40;99.90;;;;;;5069816;28;20042;-49
2022/12/01 08:48:45;;;;;;;64.88;27.25;;;;;;;;;;5079291;28;20477;-51
2022/12/01 08:51:15;;;;;;;52.55;26.05;;;;;;;;;;5069790;28;20039;-47
2022/12/01 08:53:43;;;;;;;63.60;27.20;;;;;;;;;;5076767;28;20059;-50
2022/12/01 08:56:16;;;;;;;52.15;22.77;;;;;;;;;;5066769;28;20044;-53
2022/12/01 08:58:42;;;;;;;53.03;23.60;;;4.10;99.90;;;;;;5070342;28;20068;-53
2022/12/01 09:01:13;;;;;;;57.65;25.05;;;;;;;;;;5081742;28;20056;-53
2022/12/01 09:03:39;;;;;;;56.10;23.08;;;;;;;;;;5075104;28;20170;-51
2022/12/01 09:06:18;;;;;;;44.55;21.77;;;4.20;99.90;;;;;;5067483;28;20064;-50
2022/12/01 09:08:43;;;;;;;48.05;22.40;;;4.10;99.90;;;;;;5079617;28;20489;-51
2022/12/01 09:11:11;;;;;;;41.60;19.13;;;;;;;;;;5088918;28;20062;-52
2022/12/01 09:13:38;;;;;;;37.47;17.92;;;4.10;99.90;;;;;;5093858;28;20040;-52
2022/12/01 09:16:10;;;;;;;33.95;17.73;;;;;;;;;;5050219;28;20119;-53
2022/12/01 09:18:36;;;;;;;40.50;19.10;;;;;;;;;;5087373;28;20485;-50
2022/12/01 09:21:14;;;;;;;38.83;18.35;;;;;;;;;;5080688;28;20039;-51
2022/12/01 09:23:40;;;;;;;35.42;17.95;;;;;;;;;;5085529;28;20036;-51
2022/12/01 09:26:07;;;;;;;33.00;16.08;;;4.40;99.90;;;;;;5087454;28;20382;-53
2022/12/01 09:28:33;;;;;;;32.03;17.17;;;4.50;99.90;;;;;;5078934;28;20079;-52
2022/12/01 09:31:06;;;;;;;32.45;16.80;;;;;;;;;;5068963;28;20165;-53
2022/12/01 09:33:32;;;;;;;34.75;17.50;;;4.60;99.90;;;;;;5083078;28;20045;-52
2022/12/01 09:35:58;;;;;;;34.72;16.73;;;;;;;;;;5080299;28;20084;-52
2022/12/01 09:38:25;;;;;;;31.25;15.63;;;;;;;;;;5074936;28;20651;-52
2022/12/01 09:40:51;;;;;;;32.28;16.70;;;4.50;99.90;;;;;;5063471;28;20531;-53
2022/12/01 09:43:24;;;;;;;41.13;19.70;;;4.20;99.90;;;;;;5079587;28;20032;-53
2022/12/01 09:46:01;;;;;;;32.05;15.70;;;;;;;;;;5079344;28;20501;-52
2022/12/01 09:48:41;;;;;;;33.35;16.63;;;;;;;;;;5077447;28;20629;-52
2022/12/01 09:51:17;;;;;;;37.00;16.77;;;;;;;;;;5080623;28;20032;-52
2022/12/01 09:53:44;;;;;;;30.15;15.60;;;;;;;;;;5076998;28;20056;-52
2022/12/01 09:56:28;;;;;;;32.78;16.52;;;;;;;;;;5081459;28;20108;-52
2022/12/01 09:58:57;;;;;;;32.15;15.85;;;;;;;;;;5081768;28;20032;-53
2022/12/01 10:01:32;;;;;;;31.23;15.35;;;;;;;;;;5079444;28;20055;-52
2022/12/01 10:04:05;;;;;;;27.98;14.77;;;4.90;99.90;;;;;;5084439;28;20043;-51
2022/12/01 10:06:43;;;;;;;30.17;15.02;;;;;;;;;;5059885;28;20040;-52
2022/12/01 10:09:15;;;;;;;26.25;13.80;;;;;;;;;;5076934;28;20036;-53
2022/12/01 10:11:43;;;;;;;30.60;14.70;;;5.20;99.90;;;;;;5082774;28;20036;-52
2022/12/01 10:14:17;;;;;;;25.08;14.20;;;5.40;99.90;;;;;;5080187;28;20115;-52
2022/12/01 10:16:49;;;;;;;25.67;13.93;;;;;;;;;;5071073;28;20075;-50
2022/12/01 10:19:25;;;;;;;25.02;12.95;;;;;;;;;;5063499;28;20037;-49
2022/12/01 10:22:10;;;;;;;26.23;12.95;;;;;;;;;;5082809;28;20423;-52
2022/12/01 10:24:52;;;;;;;24.80;13.85;;;4.80;99.90;;;;;;5092625;28;20044;-51
2022/12/01 10:27:27;;;;;;;25.65;13.82;;;;;;;;;;5079794;28;20508;-52
2022/12/01 10:30:04;;;;;;;24.42;12.57;;;5.50;99.90;;;;;;5082538;28;20042;-53
2022/12/01 10:32:38;;;;;;;25.48;13.70;;;;;;;;;;5084451;28;20039;-50
2022/12/01 10:35:04;;;;;;;28.47;15.50;;;5.50;99.90;;;;;;5086003;28;20536;-54
2022/12/01 10:37:30;;;;;;;24.80;13.50;;;5.50;99.90;;;;;;5087899;28;20051;-51
2022/12/01 10:39:57;;;;;;;25.58;14.15;;;;;;;;;;5084422;28;20032;-49
2022/12/01 10:42:37;;;;;;;24.77;12.32;;;;;;;;;;5087895;28;20080;-52
2022/12/01 10:45:04;;;;;;;22.80;12.63;;;;;;;;;;5085760;28;20072;-50
2022/12/01 10:47:30;;;;;;;27.67;14.38;;;5.60;99.90;;;;;;5068481;28;20539;-51
2022/12/01 10:49:57;;;;;;;24.15;12.68;;;;;;;;;;5085058;28;20040;-52
2022/12/01 10:52:32;;;;;;;21.80;12.77;;;;;;;;;;5080050;28;20375;-50
2022/12/01 10:54:58;;;;;;;24.33;12.57;;;;;;;;;;5084591;28;20068;-49
2022/12/01 10:57:26;;;;;;;25.33;13.45;;;;;;;;;;5087493;28;20050;-51
2022/12/01 10:59:56;;;;;;;25.83;14.90;;;;;;;;;;5070273;28;20029;-50
2022/12/01 11:02:25;;;;;;;21.67;11.98;;;;;;;;;;5067661;28;20079;-51
2022/12/01 11:04:59;;;;;;;21.50;12.35;;;6.50;99.90;;;;;;5083577;28;20043;-52
2022/12/01 11:07:31;;;;;;;25.58;14.15;;;;;;;;;;5082977;28;20089;-50
2022/12/01 11:10:23;;;;;;;22.73;12.80;;;;;;;;;;5084040;28;20040;-52
2022/12/01 11:12:54;;;;;;;21.88;12.35;;;;;;;;;;5087053;28;20079;-52
2022/12/01 11:15:22;;;;;;;20.77;10.35;;;;;;;;;;5087263;28;20105;-53
2022/12/01 11:17:48;;;;;;;19.30;10.02;;;;;;;;;;5089040;28;20097;-49
2022/12/01 11:20:28;;;;;;;18.92;10.98;;;;;;;;;;5070820;28;20036;-50
2022/12/01 11:23:17;;;;;;;18.60;10.73;;;7.40;99.90;;;;;;5089443;28;20238;-50
2022/12/01 11:25:57;;;;;;;17.73;10.57;;;;;;;;;;5083407;28;20481;-50
2022/12/01 11:28:23;;;;;;;18.23;9.95;;;;;;;;;;5089406;28;20086;-51
2022/12/01 11:30:54;;;;;;;19.63;10.48;;;;;;;;;;5088730;28;20068;-53
2022/12/01 11:33:20;;;;;;;18.67;11.43;;;8.20;99.90;;;;;;5068434;28;20493;-49
2022/12/01 11:35:48;;;;;;;16.15;10.45;;;8.50;99.90;;;;;;5089131;28;20032;-49
2022/12/01 11:38:24;;;;;;;18.15;9.98;;;;;;;;;;5087138;28;20093;-52
2022/12/01 11:40:54;;;;;;;16.60;9.65;;;;;;;;;;5085834;28;20115;-53
2022/12/01 11:43:31;;;;;;;15.93;9.05;;;;;;;;;;5086667;28;20040;-52
2022/12/01 11:45:59;;;;;;;17.55;8.93;;;;;;;;;;5086131;28;20127;-50
2022/12/01 11:48:28;;;;;;;15.68;9.32;;;8.60;99.90;;;;;;5060679;28;20123;-49
2022/12/01 11:51:00;;;;;;;17.92;10.35;;;;;;;;;;5070611;28;20064;-52
2022/12/01 11:53:33;;;;;;;18.58;9.80;;;8.90;99.90;;;;;;5069088;28;20046;-49
2022/12/01 11:56:19;;;;;;;16.10;8.38;;;9.60;99.90;;;;;;5051340;28;20490;-49
2022/12/01 11:58:47;;;;;;;15.45;9.10;;;;;;;;;;5079834;28;20036;-50
2022/12/01 12:01:31;;;;;;;15.75;8.98;;;;;;;;;;5087418;28;20082;-51
2022/12/01 12:04:25;;;;;;;18.73;9.52;;;9.20;99.90;;;;;;5089658;28;20047;-52
2022/12/01 12:07:00;;;;;;;14.93;8.77;;;;;;;;;;5066615;28;20048;-51
2022/12/01 12:09:43;;;;;;;15.77;7.47;;;9.10;99.90;;;;;;5087630;28;20386;-52
2022/12/01 12:12:08;;;;;;;12.70;7.03;;;8.80;99.90;;;;;;5085001;28;20036;-52
2022/12/01 12:14:50;;;;;;;13.25;6.60;;;;;;;;;;5078385;28;20036;-53
2022/12/01 12:17:36;;;;;;;11.85;6.53;;;;;;;;;;5083563;28;20037;-50
2022/12/01 12:20:21;;;;;;;16.55;7.00;;;;;;;;;;5089128;28;20032;-52
2022/12/01 12:22:53;;;;;;;11.98;6.18;;;;;;;;;;5062302;28;20039;-57
2022/12/01 12:25:27;;;;;;;11.40;6.38;;;;;;;;;;5087300;28;20115;-51
2022/12/01 12:27:53;;;;;;;13.13;6.85;;;;;;;;;;5060451;28;20044;-52
2022/12/01 12:30:30;;;;;;;12.98;6.63;;;8.70;99.90;;;;;;5085486;28;20098;-52
2022/12/01 12:33:02;;;;;;;13.55;7.25;;;;;;;;;;5060581;28;20486;-53
2022/12/01 12:35:52;;;;;;;12.15;7.00;;;9.30;99.90;;;;;;5084803;28;20074;-52
2022/12/01 12:38:44;;;;;;;13.48;7.63;;;9.50;99.90;;;;;;5078327;28;20036;-52
2022/12/01 12:41:40;;;;;;;13.88;8.45;;;11.00;99.90;;;;;;5071105;28;20036;-52
2022/12/01 12:44:16;;;;;;;12.80;7.03;;;11.90;99.90;;;;;;5076662;28;20052;-51
2022/12/01 12:46:55;;;;;;;12.07;7.28;;;14.00;99.90;;;;;;5077182;28;20036;-52
2022/12/01 12:49:35;;;;;;;14.55;7.63;;;;;;;;;;5076132;28;20050;-52
2022/12/01 12:52:12;;;;;;;12.05;7.13;;;18.00;99.90;;;;;;5078191;28;20043;-52
2022/12/01 12:54:48;;;;;;;12.02;6.85;;;18.70;99.90;;;;;;5083201;28;20064;-52
2022/12/01 12:57:28;;;;;;;11.75;6.78;;;20.60;99.90;;;;;;5084238;28;20032;-53
2022/12/01 13:00:01;;;;;;;11.95;6.35;;;20.80;99.90;;;;;;5083580;28;20522;-52
2022/12/01 13:02:32;;;;;;;9.73;6.45;;;20.50;99.90;;;;;;5076232;28;20089;-52
2022/12/01 13:05:25;;;;;;;8.82;6.05;;;20.30;99.90;;;;;;5089072;28;20460;-53
2022/12/01 13:07:58;;;;;;;10.90;6.50;;;20.80;99.90;;;;;;5073774;28;20513;-52
2022/12/01 13:10:45;;;;;;;9.48;5.65;;;18.60;99.90;;;;;;5090233;28;20267;-51
2022/12/01 13:13:44;;;;;;;10.15;6.13;;;17.90;99.90;;;;;;5089900;28;20044;-53
2022/12/01 13:16:14;;;;;;;11.77;6.68;;;15.90;99.90;;;;;;5055479;28;20036;-52
2022/12/01 13:18:54;;;;;;;9.07;5.57;;;14.40;99.90;;;;;;5075911;28;20063;-52
2022/12/01 13:21:21;;;;;;;9.90;6.05;;;14.90;99.90;;;;;;5071777;28;20716;-52
2022/12/01 13:23:48;;;;;;;10.07;5.65;;;13.80;99.90;;;;;;5076879;28;20489;-51
2022/12/01 13:26:17;;;;;;;9.93;6.55;;;13.30;99.90;;;;;;5090370;28;20397;-52
2022/12/01 13:28:55;;;;;;;10.65;6.32;;;12.90;99.90;;;;;;5063076;28;20047;-53
2022/12/01 13:31:21;;;;;;;10.93;6.72;;;11.60;99.90;;;;;;5089269;28;20041;-52
2022/12/01 13:33:59;;;;;;;11.02;6.55;;;11.70;99.90;;;;;;5059903;28;20040;-52
2022/12/01 13:36:26;;;;;;;10.02;6.25;;;11.90;99.90;;;;;;5074335;28;20052;-50
2022/12/01 13:39:04;;;;;;;11.95;7.35;;;11.10;99.90;;;;;;5083451;28;20497;-52
2022/12/01 13:41:38;;;;;;;12.57;7.28;;;10.90;99.90;;;;;;5081023;28;20040;-52
2022/12/01 13:44:20;;;;;;;11.68;6.80;;;10.90;99.90;;;;;;5077106;28;20115;-51
2022/12/01 13:46:45;;;;;;;12.85;7.70;;;9.70;99.90;;;;;;5077650;28;20047;-53
2022/12/01 13:49:41;;;;;;;11.63;7.60;;;10.80;99.90;;;;;;5072059;28;20032;-52
2022/12/01 13:52:24;;;;;;;11.50;7.35;;;9.80;99.90;;;;;;5058205;28;20079;-52
2022/12/01 13:55:08;;;;;;;13.60;6.95;;;9.80;99.90;;;;;;5072741;28;20101;-52